Aviation Digital Data Service (ADDS)

Output produced by TAFs form (2111 UTC 22 October 2017)
found at http://www.aviationweather.gov/adds/tafs/
 
KVLD 222053Z 11003KT 10SM CLR 30/19 A3007 RMK AO2 SLP187 T03000189 56022 $
KVLD 221723Z 2218/2318 12009KT P6SM BKN050 
     FM230900 16007KT P6SM -TSRA OVC025CB 
     FM231600 19010G20KT P6SM -TSRA OVC025CB